Time;durP1;ratioP1;P1;durP2;ratioP2;P2;SDS_P1;SDS_P2;PMS_P1;PMS_P2;Temp;Humidity;BMP_temperature;BMP_pressure;BME280_temperature;BME280_humidity;BME280_pressure;Samples;Min_cycle;Max_cycle;Signal;HPM_P1;HPM_P2
2021/12/12 00:02:30;;;;;;;60.70;28.25;;;3.40;99.90;;;;;;5060036;28;20178;-42
2021/12/12 00:04:56;;;;;;;61.33;27.50;;;3.40;99.90;;;;;;5067084;28;20047;-42
2021/12/12 00:07:29;;;;;;;66.10;27.40;;;3.40;99.90;;;;;;5060179;28;20430;-42
2021/12/12 00:10:03;;;;;;;66.93;27.02;;;3.50;99.90;;;;;;5052231;28;20159;-42
2021/12/12 00:12:33;;;;;;;63.20;27.50;;;3.50;99.90;;;;;;5048049;28;20518;-42
2021/12/12 00:15:00;;;;;;;60.80;28.80;;;3.40;99.90;;;;;;5018649;28;20254;-42
2021/12/12 00:17:27;;;;;;;66.28;27.42;;;3.50;99.90;;;;;;5046500;28;20045;-44
2021/12/12 00:19:53;;;;;;;59.73;27.50;;;3.50;99.90;;;;;;5080207;28;20396;-43
2021/12/12 00:22:23;;;;;;;60.70;28.95;;;3.50;99.90;;;;;;5054876;28;20040;-42
2021/12/12 00:24:49;;;;;;;62.50;27.75;;;3.50;99.90;;;;;;5060910;28;20091;-42
2021/12/12 00:27:16;;;;;;;60.80;28.97;;;3.50;99.90;;;;;;5046616;28;20407;-42
2021/12/12 00:29:42;;;;;;;57.45;28.23;;;3.50;99.90;;;;;;5061036;28;20548;-42
2021/12/12 00:32:13;;;;;;;55.17;26.98;;;3.50;99.90;;;;;;5079816;28;20041;-42
2021/12/12 00:35:10;;;;;;;67.28;29.48;;;3.50;99.90;;;;;;5047919;28;20041;-43
2021/12/12 00:37:37;;;;;;;56.38;26.48;;;3.50;99.90;;;;;;5047286;28;20081;-43
2021/12/12 00:40:22;;;;;;;57.40;27.35;;;3.50;99.90;;;;;;5041929;28;20115;-42
2021/12/12 00:42:50;;;;;;;67.00;27.75;;;3.60;99.90;;;;;;5041326;28;20032;-42
2021/12/12 00:45:17;;;;;;;61.33;28.92;;;3.60;99.90;;;;;;5064549;28;20509;-42
2021/12/12 00:47:45;;;;;;;52.05;27.42;;;3.60;99.90;;;;;;5052727;28;20059;-42
2021/12/12 00:50:20;;;;;;;57.38;27.38;;;3.60;99.90;;;;;;5049520;28;20040;-42
2021/12/12 00:52:49;;;;;;;55.55;27.70;;;3.60;99.90;;;;;;5054432;28;20441;-43
2021/12/12 00:55:15;;;;;;;57.03;28.55;;;3.60;99.90;;;;;;5053841;28;20052;-42
2021/12/12 00:57:42;;;;;;;63.33;28.67;;;3.60;99.90;;;;;;5046400;28;20072;-43
2021/12/12 01:00:12;;;;;;;59.95;28.10;;;3.60;99.90;;;;;;5047375;28;20306;-42
2021/12/12 01:02:38;;;;;;;51.90;28.67;;;3.60;99.90;;;;;;5047353;28;20152;-42
2021/12/12 01:05:09;;;;;;;54.60;27.23;;;3.60;99.90;;;;;;5058538;28;20063;-42
2021/12/12 01:07:40;;;;;;;64.55;28.98;;;3.60;99.90;;;;;;5055248;28;20052;-42
2021/12/12 01:10:15;;;;;;;62.45;29.17;;;3.60;99.90;;;;;;5057988;28;20036;-39
2021/12/12 01:12:41;;;;;;;59.20;28.45;;;3.70;99.90;;;;;;5047417;28;20037;-41
2021/12/12 01:15:32;;;;;;;56.40;27.80;;;3.70;99.90;;;;;;5053867;28;20059;-40
2021/12/12 01:18:03;;;;;;;57.75;27.35;;;3.70;99.90;;;;;;5049412;28;20044;-40
2021/12/12 01:20:38;;;;;;;60.28;27.83;;;3.70;99.90;;;;;;5063134;28;20396;-40
2021/12/12 01:23:11;;;;;;;58.35;27.92;;;3.70;99.90;;;;;;5052107;28;20120;-40
2021/12/12 01:25:44;;;;;;;62.17;27.25;;;3.70;99.90;;;;;;5055554;28;20175;-40
2021/12/12 01:28:12;;;;;;;53.60;27.38;;;3.70;99.90;;;;;;5050706;28;20110;-41
2021/12/12 01:30:38;;;;;;;60.95;27.95;;;3.70;99.90;;;;;;5054717;28;20047;-41
2021/12/12 01:33:05;;;;;;;60.33;28.90;;;3.70;99.90;;;;;;5051955;28;20642;-40
2021/12/12 01:35:32;;;;;;;63.35;28.27;;;3.70;99.90;;;;;;5061411;28;20048;-40
2021/12/12 01:40:51;;;;;;;64.75;29.25;;;3.70;99.90;;;;;;5052691;28;20045;-40
2021/12/12 01:43:28;;;;;;;62.50;29.70;;;3.70;99.90;;;;;;5054100;28;20045;-40
2021/12/12 01:46:03;;;;;;;68.68;29.80;;;3.70;99.90;;;;;;5053665;28;20510;-40
2021/12/12 01:48:39;;;;;;;56.28;28.38;;;3.70;99.90;;;;;;5069684;28;20043;-40
2021/12/12 01:51:09;;;;;;;70.75;29.90;;;3.70;99.90;;;;;;5063896;28;20090;-40
2021/12/12 01:53:40;;;;;;;65.60;29.65;;;3.70;99.90;;;;;;5051176;28;20058;-41
2021/12/12 01:56:12;;;;;;;62.42;30.13;;;3.70;99.90;;;;;;5049076;28;20187;-41
2021/12/12 01:58:41;;;;;;;59.40;29.85;;;3.70;99.90;;;;;;5050771;28;20065;-40
2021/12/12 02:01:22;;;;;;;61.90;29.85;;;3.70;99.90;;;;;;5049782;28;20114;-40
2021/12/12 02:03:54;;;;;;;66.80;29.20;;;3.70;99.90;;;;;;5050745;28;20052;-40
2021/12/12 02:06:22;;;;;;;64.60;29.27;;;3.70;99.90;;;;;;5058439;28;20466;-42
2021/12/12 02:08:51;;;;;;;62.50;28.08;;;3.70;99.90;;;;;;5055724;28;20051;-40
2021/12/12 02:11:28;;;;;;;65.63;27.95;;;3.70;99.90;;;;;;5067218;28;20554;-41
2021/12/12 02:13:57;;;;;;;63.75;29.23;;;3.70;99.90;;;;;;5060404;28;20045;-42
2021/12/12 02:16:25;;;;;;;65.20;28.38;;;3.70;99.90;;;;;;5052902;28;20074;-43
2021/12/12 02:18:55;;;;;;;66.30;30.05;;;3.70;99.90;;;;;;5067250;28;20092;-40
2021/12/12 02:21:34;;;;;;;62.70;29.55;;;3.70;99.90;;;;;;5055355;28;20509;-42
2021/12/12 02:35:31;;;;;;;61.58;29.77;;;3.80;99.90;;;;;;5058139;28;20049;-41
2021/12/12 02:37:59;;;;;;;60.92;27.52;;;3.80;99.90;;;;;;5049874;28;20041;-41
2021/12/12 02:40:32;;;;;;;55.80;28.50;;;3.70;99.90;;;;;;5081905;28;20067;-41
2021/12/12 02:43:00;;;;;;;63.53;28.80;;;3.80;99.90;;;;;;5064812;28;20040;-40
2021/12/12 02:45:28;;;;;;;62.25;28.30;;;3.80;99.90;;;;;;5034673;28;20080;-41
2021/12/12 02:47:59;;;;;;;63.70;28.48;;;3.80;99.90;;;;;;5052425;28;20075;-41
2021/12/12 02:50:32;;;;;;;60.53;27.67;;;3.80;99.90;;;;;;5036886;28;20037;-40
2021/12/12 02:53:26;;;;;;;60.63;27.95;;;3.80;99.90;;;;;;5081899;28;20409;-41
2021/12/12 02:55:58;;;;;;;63.65;26.40;;;3.80;99.90;;;;;;5046466;28;20056;-41
2021/12/12 02:58:25;;;;;;;56.33;26.52;;;3.90;99.90;;;;;;5049161;28;20049;-41
2021/12/12 03:01:13;;;;;;;56.78;26.40;;;3.90;99.90;;;;;;5049555;28;20045;-40
2021/12/12 03:03:40;;;;;;;58.42;26.83;;;3.80;99.90;;;;;;5056322;28;20463;-39
2021/12/12 03:06:11;;;;;;;68.47;28.42;;;3.90;99.90;;;;;;5065709;28;20052;-41
2021/12/12 03:08:39;;;;;;;52.90;26.65;;;3.90;99.90;;;;;;5054727;28;20245;-41
2021/12/12 03:11:06;;;;;;;56.58;25.85;;;3.90;99.90;;;;;;5056543;28;20044;-42
2021/12/12 03:13:32;;;;;;;57.05;25.75;;;3.90;99.90;;;;;;5031027;28;20045;-40
2021/12/12 03:15:58;;;;;;;60.33;25.67;;;3.90;99.90;;;;;;5054371;28;20049;-40
2021/12/12 03:18:29;;;;;;;53.35;24.85;;;3.90;99.90;;;;;;5060940;28;20087;-40
2021/12/12 03:20:59;;;;;;;59.88;25.55;;;3.90;99.90;;;;;;5049453;28;20168;-43
2021/12/12 03:23:33;;;;;;;50.90;25.17;;;4.00;99.90;;;;;;5061344;28;20443;-40
2021/12/12 03:26:08;;;;;;;57.95;23.85;;;4.00;99.90;;;;;;5047503;28;20106;-40
2021/12/12 03:28:39;;;;;;;48.92;24.38;;;3.90;99.90;;;;;;5057203;28;20037;-40
2021/12/12 03:31:15;;;;;;;53.03;23.67;;;4.00;99.90;;;;;;5062114;28;20128;-41
2021/12/12 03:33:41;;;;;;;55.00;23.27;;;4.00;99.90;;;;;;5067618;28;20495;-41
2021/12/12 03:36:09;;;;;;;58.20;24.30;;;4.00;99.90;;;;;;5050489;28;20103;-40
2021/12/12 03:38:38;;;;;;;52.58;24.38;;;4.00;99.90;;;;;;5047447;28;20083;-41
2021/12/12 03:41:10;;;;;;;48.67;23.50;;;4.00;99.90;;;;;;5048011;28;20102;-40
2021/12/12 03:43:38;;;;;;;49.35;23.98;;;4.00;99.90;;;;;;5048906;28;20079;-41
2021/12/12 03:46:10;;;;;;;50.67;22.67;;;4.00;99.90;;;;;;5080486;28;20064;-41
2021/12/12 03:48:40;;;;;;;52.83;23.55;;;4.00;99.90;;;;;;5047724;28;20057;-41
2021/12/12 03:51:07;;;;;;;44.42;22.05;;;4.10;99.90;;;;;;5053854;28;20044;-40
2021/12/12 03:53:36;;;;;;;48.38;21.85;;;4.10;99.90;;;;;;5055288;28;20041;-42
2021/12/12 03:56:04;;;;;;;47.17;21.95;;;4.10;99.90;;;;;;5059876;28;20407;-42
2021/12/12 03:58:30;;;;;;;58.00;23.33;;;4.10;99.90;;;;;;5047823;28;20049;-41
2021/12/12 04:00:59;;;;;;;52.08;22.38;;;4.10;99.90;;;;;;5046736;28;20128;-41
2021/12/12 04:03:26;;;;;;;55.20;22.73;;;4.20;99.90;;;;;;5048583;28;20041;-42
2021/12/12 04:05:56;;;;;;;45.85;21.73;;;4.20;99.90;;;;;;5053174;28;20043;-41
2021/12/12 04:08:37;;;;;;;42.60;20.48;;;4.20;99.90;;;;;;5051943;28;20041;-42
2021/12/12 04:11:11;;;;;;;40.67;20.45;;;4.20;99.90;;;;;;5048077;28;20092;-43
2021/12/12 04:13:41;;;;;;;37.97;18.73;;;4.30;99.90;;;;;;5061505;28;20041;-42
2021/12/12 04:16:08;;;;;;;42.30;19.83;;;4.30;99.90;;;;;;5061377;28;20041;-42
2021/12/12 04:18:35;;;;;;;43.40;18.85;;;4.30;99.90;;;;;;5052655;28;20525;-42
2021/12/12 04:21:01;;;;;;;37.97;17.92;;;4.40;99.90;;;;;;5053903;28;20033;-41
2021/12/12 04:23:28;;;;;;;35.42;17.00;;;4.40;99.90;;;;;;5053206;28;20028;-41
2021/12/12 04:26:06;;;;;;;29.97;16.57;;;4.40;99.90;;;;;;5070582;28;20089;-41
2021/12/12 04:28:32;;;;;;;37.00;16.77;;;4.50;99.90;;;;;;5048191;28;20044;-41
2021/12/12 04:30:58;;;;;;;34.88;15.50;;;4.50;99.90;;;;;;5047674;28;20067;-42
2021/12/12 04:33:25;;;;;;;27.63;15.02;;;4.60;99.90;;;;;;5048111;28;20102;-42
2021/12/12 04:35:51;;;;;;;30.13;15.18;;;4.60;99.90;;;;;;5046574;28;20040;-42
2021/12/12 04:38:17;;;;;;;28.52;14.27;;;4.60;99.90;;;;;;5047163;28;20541;-43
2021/12/12 04:40:43;;;;;;;28.10;14.40;;;4.60;99.90;;;;;;5048173;28;20037;-41
2021/12/12 04:43:09;;;;;;;25.92;15.05;;;4.70;99.90;;;;;;5041438;28;20045;-41
2021/12/12 04:46:03;;;;;;;25.63;13.85;;;4.70;99.90;;;;;;5060935;28;20048;-41
2021/12/12 04:51:58;;;;;;;28.38;13.10;;;4.70;99.90;;;;;;5067910;28;20087;-43
2021/12/12 04:54:43;;;;;;;26.42;13.57;;;4.70;99.90;;;;;;5047297;28;20184;-43
2021/12/12 04:57:46;;;;;;;22.00;13.05;;;4.70;99.90;;;;;;5051349;28;20618;-41
2021/12/12 05:00:18;;;;;;;23.35;13.10;;;4.70;99.90;;;;;;5020554;28;20112;-41
2021/12/12 05:02:54;;;;;;;24.10;13.05;;;4.70;99.90;;;;;;5026630;28;20545;-41
2021/12/12 05:05:36;;;;;;;23.60;13.43;;;4.70;99.90;;;;;;5012125;28;20049;-41
2021/12/12 05:08:11;;;;;;;23.27;12.68;;;4.70;99.90;;;;;;5028084;28;20052;-41
2021/12/12 05:10:46;;;;;;;23.33;14.23;;;4.70;99.90;;;;;;5014436;28;20034;-42
2021/12/12 05:13:24;;;;;;;21.85;12.80;;;4.70;99.90;;;;;;5023067;28;20423;-42
2021/12/12 05:15:53;;;;;;;18.45;12.02;;;4.70;99.90;;;;;;5049361;28;20045;-43
2021/12/12 05:18:28;;;;;;;24.77;12.15;;;4.70;99.90;;;;;;5010792;28;20046;-41
2021/12/12 05:21:08;;;;;;;21.02;12.20;;;4.70;99.90;;;;;;5008208;28;20041;-44
2021/12/12 05:23:37;;;;;;;23.15;13.13;;;4.70;99.90;;;;;;5008263;28;20618;-42
2021/12/12 05:26:11;;;;;;;20.17;11.57;;;4.70;99.90;;;;;;5023156;28;20146;-41
2021/12/12 05:28:58;;;;;;;22.95;11.55;;;4.70;99.90;;;;;;5039694;28;20104;-42
2021/12/12 05:31:25;;;;;;;20.60;12.25;;;4.70;99.90;;;;;;5017454;28;20136;-44
2021/12/12 05:33:54;;;;;;;16.70;10.63;;;4.70;99.90;;;;;;5048503;28;20042;-41
2021/12/12 05:36:22;;;;;;;16.50;10.50;;;4.70;99.90;;;;;;5008076;28;20441;-42
2021/12/12 05:38:49;;;;;;;17.40;11.63;;;4.70;99.90;;;;;;4990814;28;20042;-42
2021/12/12 05:41:18;;;;;;;16.90;11.25;;;4.80;99.90;;;;;;5008035;28;20487;-42
2021/12/12 05:43:46;;;;;;;18.42;10.38;;;4.70;99.90;;;;;;5007713;28;20050;-42
2021/12/12 05:46:18;;;;;;;16.75;10.32;;;4.70;99.90;;;;;;5022878;28;20120;-43
2021/12/12 05:48:45;;;;;;;17.60;11.30;;;4.80;99.90;;;;;;5008132;28;20088;-42
2021/12/12 05:51:11;;;;;;;;;;;4.80;99.90;;;;;;5040026;28;20543;-42
2021/12/12 05:53:37;;;;;;;17.38;11.15;;;4.80;99.90;;;;;;5007929;28;20283;-42
2021/12/12 05:56:05;;;;;;;16.25;10.48;;;5.50;99.90;;;;;;5006112;28;20049;-41
2021/12/12 05:58:31;;;;;;;17.45;10.38;;;4.80;99.90;;;;;;5051716;28;20070;-42
2021/12/12 06:01:00;;;;;;;21.38;11.88;;;4.80;99.90;;;;;;5060168;28;20057;-44
2021/12/12 06:03:29;;;;;;;17.23;10.80;;;4.90;99.90;;;;;;5054280;28;20045;-42
2021/12/12 06:05:58;;;;;;;18.15;10.93;;;4.90;99.90;;;;;;5055998;28;20084;-42
2021/12/12 06:08:27;;;;;;;19.75;10.98;;;4.90;99.90;;;;;;5055985;28;20545;-42
2021/12/12 06:10:54;;;;;;;20.90;11.68;;;4.90;99.90;;;;;;5056819;28;20119;-42
2021/12/12 06:13:21;;;;;;;18.33;11.18;;;4.90;99.90;;;;;;5068934;28;20057;-43
2021/12/12 06:15:50;;;;;;;20.50;11.70;;;4.90;99.90;;;;;;5058746;28;20056;-43
2021/12/12 06:18:19;;;;;;;19.27;11.57;;;4.90;99.90;;;;;;5082507;28;20045;-42
2021/12/12 06:20:46;;;;;;;20.17;11.13;;;4.90;99.90;;;;;;5050545;28;20052;-42
2021/12/12 06:23:14;;;;;;;19.70;11.30;;;4.90;99.90;;;;;;5082648;28;20467;-42
2021/12/12 06:25:41;;;;;;;21.17;11.80;;;4.90;99.90;;;;;;5082092;28;20088;-42
2021/12/12 06:28:19;;;;;;;23.42;12.90;;;5.00;99.90;;;;;;5054748;28;20046;-42
2021/12/12 06:30:45;;;;;;;22.48;12.48;;;5.00;99.90;;;;;;5070346;28;20032;-41
2021/12/12 06:33:12;;;;;;;17.67;11.13;;;5.00;99.90;;;;;;5069924;28;20312;-42
2021/12/12 06:35:38;;;;;;;17.50;10.40;;;5.00;99.90;;;;;;5068452;28;20516;-44
2021/12/12 06:38:08;;;;;;;21.38;11.35;;;5.00;99.90;;;;;;5050583;28;20072;-43
2021/12/12 06:40:36;;;;;;;18.48;11.20;;;5.10;99.90;;;;;;5049667;28;20463;-43
2021/12/12 06:43:05;;;;;;;17.63;10.40;;;5.10;99.90;;;;;;5057043;28;20111;-43
2021/12/12 06:45:31;;;;;;;20.13;11.40;;;5.10;99.90;;;;;;5067848;28;20123;-44
2021/12/12 06:47:58;;;;;;;18.03;11.57;;;5.10;99.90;;;;;;5061229;28;20520;-42
2021/12/12 06:50:27;;;;;;;16.63;10.32;;;5.10;99.90;;;;;;5050619;28;20037;-43
2021/12/12 06:52:55;;;;;;;16.98;10.05;;;5.10;99.90;;;;;;5062133;28;20045;-44
2021/12/12 06:55:22;;;;;;;16.90;10.50;;;5.10;99.90;;;;;;5049894;28;20444;-42
2021/12/12 06:57:49;;;;;;;18.38;10.68;;;5.20;99.90;;;;;;5047942;28;20503;-43
2021/12/12 07:00:21;;;;;;;17.83;10.07;;;5.20;99.90;;;;;;5061839;28;20083;-42
2021/12/12 07:02:48;;;;;;;18.25;11.15;;;5.20;99.90;;;;;;5049638;28;20305;-43
2021/12/12 07:05:18;;;;;;;17.90;11.27;;;5.20;99.90;;;;;;5065937;28;20040;-45
2021/12/12 07:07:46;;;;;;;20.38;10.98;;;5.30;99.90;;;;;;5068538;28;20094;-42
2021/12/12 07:10:15;;;;;;;18.52;10.38;;;5.30;99.90;;;;;;5047623;28;20079;-43
2021/12/12 07:12:41;;;;;;;23.42;10.93;;;5.30;99.90;;;;;;5049949;28;20137;-42
2021/12/12 07:15:11;;;;;;;17.25;9.90;;;5.30;99.90;;;;;;5057850;28;20044;-42
2021/12/12 07:17:38;;;;;;;18.10;10.48;;;5.30;99.90;;;;;;5050560;28;20041;-42
2021/12/12 07:20:07;;;;;;;19.70;10.43;;;5.30;99.90;;;;;;5063134;28;20140;-44
2021/12/12 07:22:33;;;;;;;20.88;11.85;;;5.40;99.90;;;;;;5049360;28;20617;-43
2021/12/12 07:25:02;;;;;;;22.95;11.20;;;5.40;99.90;;;;;;5047755;28;20475;-44
2021/12/12 07:27:28;;;;;;;21.90;11.38;;;5.40;99.90;;;;;;5047785;28;20103;-43
2021/12/12 07:29:58;;;;;;;21.00;11.23;;;5.40;99.90;;;;;;5049196;28;20089;-42
2021/12/12 07:32:26;;;;;;;20.77;11.63;;;5.40;99.90;;;;;;5030988;28;20128;-44
2021/12/12 07:34:53;;;;;;;21.05;11.77;;;5.40;99.90;;;;;;5049678;28;20494;-44
2021/12/12 07:37:19;;;;;;;23.40;11.63;;;5.40;99.90;;;;;;5062168;28;20048;-44
2021/12/12 07:39:47;;;;;;;21.90;11.43;;;5.40;99.90;;;;;;5049004;28;20494;-44
2021/12/12 07:42:16;;;;;;;20.95;12.13;;;5.40;99.90;;;;;;5057334;28;20048;-42
2021/12/12 07:44:43;;;;;;;23.23;12.45;;;5.50;99.90;;;;;;5081509;28;20044;-42
2021/12/12 07:47:13;;;;;;;21.73;11.73;;;5.50;99.90;;;;;;5048804;28;20120;-43
2021/12/12 07:49:43;;;;;;;20.85;11.00;;;5.60;99.90;;;;;;5048957;28;20347;-43
2021/12/12 07:52:14;;;;;;;24.80;12.52;;;5.60;99.90;;;;;;5064208;28;20128;-43
2021/12/12 07:54:40;;;;;;;21.17;12.70;;;5.60;99.90;;;;;;5066798;28;20054;-42
2021/12/12 07:57:07;;;;;;;22.70;11.93;;;5.60;99.90;;;;;;5062896;28;20229;-44
2021/12/12 07:59:38;;;;;;;28.02;13.48;;;5.70;99.90;;;;;;5066361;28;20099;-42
2021/12/12 08:02:06;;;;;;;22.85;11.98;;;5.70;99.90;;;;;;5066699;28;20064;-44
2021/12/12 08:04:33;;;;;;;25.35;12.50;;;5.70;99.90;;;;;;5064850;28;20068;-43
2021/12/12 08:07:00;;;;;;;27.08;12.35;;;5.70;99.90;;;;;;5065318;28;20064;-45
2021/12/12 08:09:28;;;;;;;20.67;10.73;;;5.80;99.90;;;;;;5045437;28;20464;-43
2021/12/12 08:11:54;;;;;;;23.60;12.68;;;5.80;99.90;;;;;;5061593;28;20099;-45
2021/12/12 08:14:24;;;;;;;20.77;11.67;;;5.80;99.90;;;;;;5066412;28;20044;-43
2021/12/12 08:16:51;;;;;;;22.73;11.90;;;5.80;99.90;;;;;;5063426;28;20037;-44
2021/12/12 08:19:19;;;;;;;23.70;12.18;;;5.80;99.90;;;;;;5065960;28;20044;-43
2021/12/12 08:21:47;;;;;;;26.73;11.98;;;5.90;99.90;;;;;;5049991;28;20059;-42
2021/12/12 08:24:14;;;;;;;26.10;12.80;;;5.90;99.90;;;;;;5049652;28;20046;-44
2021/12/12 08:26:44;;;;;;;26.48;12.82;;;5.90;99.90;;;;;;5065471;28;20075;-42
2021/12/12 08:29:13;;;;;;;25.33;12.95;;;6.00;99.90;;;;;;5062661;28;20036;-44
2021/12/12 08:31:40;;;;;;;28.02;12.48;;;6.00;99.90;;;;;;5065448;28;20041;-44
2021/12/12 08:34:11;;;;;;;29.52;13.73;;;6.00;99.90;;;;;;5065552;28;20076;-42
2021/12/12 08:36:39;;;;;;;27.05;13.15;;;6.00;99.90;;;;;;5065854;28;20475;-43
2021/12/12 08:39:10;;;;;;;24.83;13.57;;;6.10;99.90;;;;;;5064932;28;20159;-44
2021/12/12 08:41:37;;;;;;;28.00;13.32;;;6.10;99.90;;;;;;5063676;28;20502;-44
2021/12/12 08:44:08;;;;;;;32.17;14.70;;;6.10;99.90;;;;;;5063264;28;20044;-42
2021/12/12 08:46:37;;;;;;;33.28;14.05;;;6.10;99.90;;;;;;5063509;28;20052;-44
2021/12/12 08:49:04;;;;;;;30.83;14.27;;;6.10;99.90;;;;;;5065908;28;20076;-45
2021/12/12 08:51:34;;;;;;;32.35;15.77;;;6.20;99.90;;;;;;5066012;28;20385;-43
2021/12/12 08:54:14;;;;;;;30.73;15.23;;;6.20;99.90;;;;;;5059662;28;20080;-44
2021/12/12 08:56:45;;;;;;;32.45;14.88;;;6.20;99.90;;;;;;5063963;28;20052;-45
2021/12/12 08:59:17;;;;;;;31.23;15.25;;;6.20;99.90;;;;;;5072310;28;20587;-43
2021/12/12 09:01:44;;;;;;;35.63;15.77;;;6.20;99.90;;;;;;5065303;28;20090;-43
2021/12/12 09:04:11;;;;;;;30.45;14.68;;;6.20;99.90;;;;;;5057444;28;20079;-44
2021/12/12 09:07:04;;;;;;;31.45;15.45;;;6.30;99.90;;;;;;5055749;28;20044;-43
2021/12/12 09:09:48;;;;;;;34.35;14.40;;;6.30;99.90;;;;;;5057902;28;20040;-46
2021/12/12 09:12:25;;;;;;;34.95;15.60;;;6.30;99.90;;;;;;5053583;28;20514;-43
2021/12/12 09:14:57;;;;;;;38.65;16.48;;;6.30;99.90;;;;;;5057935;28;20064;-43
2021/12/12 09:17:56;;;;;;;40.38;16.88;;;6.30;99.90;;;;;;5055107;28;20052;-44
2021/12/12 09:20:35;;;;;;;39.45;17.70;;;6.40;99.90;;;;;;5025664;28;20503;-43
2021/12/12 09:23:42;;;;;;;38.92;16.77;;;6.40;99.90;;;;;;5048622;28;20177;-43
2021/12/12 09:26:21;;;;;;;36.78;16.23;;;6.40;99.90;;;;;;5022625;28;20487;-46
2021/12/12 09:29:12;;;;;;;47.50;17.42;;;6.40;99.90;;;;;;5023998;28;20602;-45
2021/12/12 09:31:45;;;;;;;42.78;16.88;;;6.40;99.90;;;;;;5035104;28;20056;-44
2021/12/12 09:34:21;;;;;;;44.80;17.33;;;6.50;99.90;;;;;;5050366;28;20037;-45
2021/12/12 09:36:59;;;;;;;59.28;19.15;;;6.50;99.90;;;;;;5079876;28;20041;-45
2021/12/12 09:39:28;;;;;;;44.10;18.08;;;6.50;99.90;;;;;;5065594;28;20441;-43
2021/12/12 09:42:19;;;;;;;47.65;18.13;;;6.60;99.90;;;;;;5057175;28;20041;-45
2021/12/12 09:45:11;;;;;;;59.75;19.95;;;6.60;99.90;;;;;;5051086;28;20041;-45
2021/12/12 09:51:15;;;;;;;58.97;20.42;;;6.70;99.90;;;;;;5058490;28;20048;-47
2021/12/12 09:54:20;;;;;;;55.03;18.73;;;6.70;99.90;;;;;;5061755;28;20054;-45
2021/12/12 09:56:56;;;;;;;53.03;19.10;;;6.70;99.90;;;;;;5034017;28;20633;-44
2021/12/12 10:00:02;;;;;;;58.88;19.80;;;6.80;99.90;;;;;;5066485;28;20133;-43
2021/12/12 10:02:55;;;;;;;57.05;20.98;;;6.80;99.90;;;;;;5041505;28;20398;-44
2021/12/12 10:05:58;;;;;;;54.75;20.80;;;6.80;99.90;;;;;;5068599;28;20131;-44
2021/12/12 10:08:35;;;;;;;67.85;21.55;;;6.80;99.90;;;;;;5063521;28;20098;-47
2021/12/12 10:11:15;;;;;;;79.32;23.73;;;6.90;99.90;;;;;;5069550;28;20387;-45
2021/12/12 10:13:50;;;;;;;62.33;23.13;;;6.90;99.90;;;;;;5067952;28;20075;-45
2021/12/12 10:16:22;;;;;;;86.10;23.52;;;7.00;99.90;;;;;;5050039;28;20064;-45
2021/12/12 10:18:48;;;;;;;84.30;23.77;;;7.00;99.90;;;;;;5068032;28;20095;-45
2021/12/12 10:21:29;;;;;;;87.78;25.70;;;7.10;99.90;;;;;;5066946;28;20513;-48
2021/12/12 10:24:16;;;;;;;83.13;25.73;;;7.10;99.90;;;;;;5068073;28;20040;-43
2021/12/12 10:26:48;;;;;;;79.50;24.33;;;7.10;99.90;;;;;;5058473;28;20468;-45
2021/12/12 10:29:14;;;;;;;80.72;25.58;;;7.20;99.90;;;;;;5056620;28;20471;-45
2021/12/12 10:31:49;;;;;;;94.25;26.27;;;7.20;99.90;;;;;;5067403;28;20106;-44
2021/12/12 10:34:20;;;;;;;74.75;22.65;;;7.30;99.90;;;;;;5067076;28;20044;-46
2021/12/12 10:37:09;;;;;;;83.60;24.52;;;7.50;99.90;;;;;;5065467;28;20114;-47
2021/12/12 10:39:49;;;;;;;82.25;22.98;;;7.50;99.90;;;;;;5066445;28;20183;-46
2021/12/12 10:42:18;;;;;;;85.55;24.00;;;7.60;99.90;;;;;;5061436;28;20538;-45
2021/12/12 10:44:48;;;;;;;88.95;24.88;;;7.60;99.90;;;;;;5049137;28;20217;-46
2021/12/12 10:47:19;;;;;;;88.55;26.30;;;;;;;;;;5058572;28;20124;-47
2021/12/12 10:50:10;;;;;;;91.40;26.02;;;7.50;99.90;;;;;;5062920;28;20060;-44
2021/12/12 10:52:57;;;;;;;84.28;24.67;;;7.60;99.90;;;;;;5092311;28;20115;-45
2021/12/12 10:55:39;;;;;;;84.43;25.33;;;7.60;99.90;;;;;;5068125;28;20067;-45
2021/12/12 10:58:50;;;;;;;78.10;24.75;;;7.70;99.90;;;;;;5063176;28;20082;-47
2021/12/12 11:01:22;;;;;;;77.60;23.02;;;7.70;99.90;;;;;;5052308;28;20503;-45
2021/12/12 11:04:15;;;;;;;75.38;22.88;;;7.80;99.90;;;;;;5067249;28;20050;-45
2021/12/12 11:06:46;;;;;;;74.68;22.67;;;7.80;99.90;;;;;;5065184;28;20063;-45
2021/12/12 11:09:29;;;;;;;83.32;24.67;;;7.80;99.90;;;;;;5061054;28;20454;-47
2021/12/12 11:12:11;;;;;;;89.47;24.23;;;7.90;99.90;;;;;;5062177;28;20048;-47
2021/12/12 11:14:55;;;;;;;74.75;23.33;;;7.90;99.90;;;;;;5065284;28;20550;-45
2021/12/12 11:17:36;;;;;;;87.57;24.38;;;7.90;99.90;;;;;;5064399;28;20056;-47
2021/12/12 11:20:27;;;;;;;74.20;22.35;;;8.00;99.90;;;;;;5050234;28;20044;-45
2021/12/12 11:23:00;;;;;;;73.63;21.92;;;8.00;99.90;;;;;;5047493;28;20540;-46
2021/12/12 11:25:55;;;;;;;75.35;21.58;;;8.10;99.90;;;;;;5051957;28;20526;-47
2021/12/12 11:28:36;;;;;;;67.22;21.98;;;8.10;99.90;;;;;;5038674;28;20053;-45
2021/12/12 11:31:12;;;;;;;66.32;21.42;;;8.20;99.90;;;;;;5055368;28;20472;-46
2021/12/12 11:33:42;;;;;;;81.22;22.67;;;8.20;99.90;;;;;;5050485;28;20460;-46
2021/12/12 11:36:15;;;;;;;75.85;23.30;;;8.30;99.90;;;;;;5051028;28;20068;-47
2021/12/12 11:38:52;;;;;;;59.08;19.67;;;8.30;99.90;;;;;;5039737;28;20044;-45
2021/12/12 11:41:32;;;;;;;71.90;22.60;;;8.40;99.90;;;;;;5065060;28;20479;-46
2021/12/12 11:44:23;;;;;;;63.33;20.17;;;8.40;99.90;;;;;;5066400;28;20359;-45
2021/12/12 11:47:08;;;;;;;59.30;19.80;;;8.50;99.90;;;;;;5058082;28;20048;-45
2021/12/12 11:49:42;;;;;;;53.25;18.70;;;8.50;99.90;;;;;;5066184;28;20032;-44
2021/12/12 11:52:13;;;;;;;61.38;19.52;;;8.60;99.90;;;;;;5063190;28;20544;-45
2021/12/12 11:54:49;;;;;;;58.22;19.70;;;8.60;99.90;;;;;;5063171;28;20052;-48
2021/12/12 11:57:38;;;;;;;53.97;19.52;;;8.70;99.90;;;;;;5056602;28;20040;-45
2021/12/12 12:00:14;;;;;;;48.20;18.75;;;8.70;99.90;;;;;;5058407;28;20392;-47
2021/12/12 12:03:04;;;;;;;56.47;19.10;;;8.80;99.90;;;;;;5058477;28;20526;-45
2021/12/12 12:06:08;;;;;;;58.63;19.70;;;8.80;99.90;;;;;;5060329;28;20048;-46
2021/12/12 12:09:07;;;;;;;45.10;16.95;;;8.80;99.90;;;;;;5031987;28;20052;-46
2021/12/12 12:11:50;;;;;;;53.10;19.20;;;8.90;99.90;;;;;;5057299;28;21229;-46
2021/12/12 12:14:45;;;;;;;49.83;17.98;;;8.90;99.90;;;;;;5054053;28;20144;-48
2021/12/12 12:17:45;;;;;;;50.60;18.23;;;8.90;99.90;;;;;;5056469;28;20036;-45
2021/12/12 12:20:19;;;;;;;58.17;18.45;;;8.90;99.90;;;;;;5049768;28;20343;-45
2021/12/12 12:22:50;;;;;;;44.50;18.30;;;8.90;99.90;;;;;;5056672;28;20105;-48
2021/12/12 12:28:34;;;;;;;42.30;16.17;;;8.90;99.90;;;;;;5056412;28;20332;-44
2021/12/12 12:31:07;;;;;;;47.45;17.33;;;8.90;99.90;;;;;;5047795;28;20049;-45
2021/12/12 12:33:51;;;;;;;40.60;16.35;;;8.90;99.90;;;;;;5063572;28;20151;-45
2021/12/12 12:36:23;;;;;;;41.13;16.88;;;8.80;99.90;;;;;;5048382;28;20254;-45
2021/12/12 12:39:26;;;;;;;39.80;15.77;;;8.80;99.90;;;;;;5048492;28;20044;-44
2021/12/12 12:42:10;;;;;;;35.88;15.07;;;8.80;99.90;;;;;;5046655;28;20975;-44
2021/12/12 12:44:55;;;;;;;41.50;16.08;;;8.80;99.90;;;;;;5080534;28;20037;-48
2021/12/12 12:47:49;;;;;;;44.30;17.13;;;8.80;99.90;;;;;;5048660;28;20258;-46
2021/12/12 12:50:36;;;;;;;49.92;16.95;;;8.90;99.90;;;;;;5061701;28;20051;-45
2021/12/12 12:53:39;;;;;;;40.70;14.70;;;8.90;99.90;;;;;;5053209;28;20043;-44
2021/12/12 12:56:34;;;;;;;45.45;16.05;;;8.90;99.90;;;;;;5041563;28;20057;-45
2021/12/12 12:59:25;;;;;;;37.25;14.48;;;8.90;99.90;;;;;;5033599;28;20330;-44
2021/12/12 13:02:04;;;;;;;44.17;14.40;;;8.90;99.90;;;;;;5048609;28;20045;-46
2021/12/12 13:04:47;;;;;;;39.38;15.15;;;9.00;99.90;;;;;;5054210;28;20067;-46
2021/12/12 13:07:25;;;;;;;41.90;13.68;;;8.90;99.90;;;;;;5092530;28;20052;-45
2021/12/12 13:10:07;;;;;;;30.02;13.18;;;8.90;99.90;;;;;;5047232;28;20060;-45
2021/12/12 13:12:50;;;;;;;37.58;13.57;;;9.00;99.90;;;;;;5080501;28;20061;-45
2021/12/12 13:15:49;;;;;;;32.40;12.73;;;9.00;99.90;;;;;;5040758;28;20080;-45
2021/12/12 13:18:40;;;;;;;28.67;12.18;;;9.00;99.90;;;;;;5054048;28;20078;-45
2021/12/12 13:21:39;;;;;;;33.97;12.88;;;9.00;99.90;;;;;;5056466;28;20338;-45
2021/12/12 13:24:27;;;;;;;32.95;11.85;;;9.00;99.90;;;;;;5067871;28;20089;-44
2021/12/12 13:27:36;;;;;;;32.03;12.45;;;9.00;99.90;;;;;;5067194;28;20044;-45
2021/12/12 13:30:26;;;;;;;28.25;11.73;;;9.10;99.90;;;;;;5069078;28;20109;-45
2021/12/12 13:33:01;;;;;;;29.83;11.05;;;9.10;99.90;;;;;;5083209;28;20040;-46
2021/12/12 13:35:34;;;;;;;28.20;11.43;;;9.10;99.90;;;;;;5071466;28;20402;-44
2021/12/12 13:38:30;;;;;;;26.33;10.60;;;9.10;99.90;;;;;;5066507;28;20398;-46
2021/12/12 13:41:07;;;;;;;27.98;10.95;;;9.10;99.90;;;;;;5065057;28;20084;-46